RLSO2: Arkansas River, Ralston, OK

                                SHEF ID:       RLSO2     Arkansas River at Ralston, OK
STATION TYPE:
Regulating: Stage = 16.00, Flow = 78729

PRECIP STAGE STAGE(2) RIV-FLOW AIR-TEMP BAT-LOAD
in ft ft cfs F volt
Ccp-Rev Ccp-Rev Ccp-Rev Ccp-Rev Ccp-Rev Ccp-Rev
(America/Chicago)
03/18 00:00 0.00 4.32 4.34 1516 55.94 12.71
03/18 01:00 0.00 4.29 4.33 1471 53.78 12.70
03/18 02:00 0.00 4.27 4.33 1442 52.34 12.70
03/18 03:00 0.00 4.29 4.32 1471 50.90 12.69
03/18 04:00 0.00 4.27 4.30 1442 49.64 12.67
03/18 05:00 0.00 4.27 4.29 1442 48.38 12.67
03/18 06:00 0.00 4.25 4.27 1413 48.02 12.67
03/18 07:00 0.00 4.24 4.26 1398 47.12 12.67
03/18 08:00 0.00 4.21 4.24 1356 46.94 12.65
03/18 09:00 0.00 4.21 4.22 1356 51.44 12.67
03/18 10:00 0.00 4.17 4.18 1300 56.66 12.73
03/18 11:00 0.00 4.12 4.20 1233 60.80 12.81
03/18 12:00 0.00 4.13 4.20 1246 65.12 12.90
03/18 13:00 0.00 4.15 4.19 1273 69.98 12.95
03/18 14:00 0.00 4.15 4.16 1273 75.56 12.99
03/18 15:00 0.00 4.10 4.17 1207 77.90 13.05
03/18 16:00 0.00 4.15 4.15 1273 83.30 12.99
03/18 17:00 0.00 4.14 4.15 1260 81.68 12.80
03/18 18:00 0.00 4.13 4.13 1246 80.42 12.75
03/18 19:00 0.00 4.10 4.14 1207 77.72 12.73
03/18 20:00 0.00 4.10 4.13 1207 71.96 12.72
03/18 21:00 0.00 4.09 4.13 1194 65.84 12.71
03/18 22:00 0.00 4.08 4.12 1181 60.80 12.71
03/18 23:00 0.00 4.07 4.12 1168 59.00 12.70
Data processed at Thu 19Mar2026 04:21 GMT

NOTICE: If you are parsing this page

Please convert to using our Data API. Starting early 2026 we will be migrating to: https://water.usace.army.mil with modern pages rendered in JavaScript. When this migration completes you will no longer be able to scrape this page! CWMSDataAPI (CDA)

Timeseries IDs (TSIDs)

TSIDs used from left to right in the data table
RALS.Precip-Inc.Total.1Hour.1Hour.Ccp-Rev
RALS.Stage.Inst.1Hour.0.Ccp-Rev
RALS.Stage-Alt.Inst.1Hour.0.Ccp-Rev
RALS.Flow.Inst.1Hour.0.Ccp-Rev
RALS.Temp-Air.Inst.1Hour.0.Ccp-Rev
RALS.Volt-Battery Load.Inst.1Hour.0.Ccp-Rev

                            

All information presented herein is the property of the government of the United States of America and may be revised or deleted at any time without prior notice. Dissemination of this information without the expressed written consent of the Public Affairs Office, Tulsa District U.S. Army Corps of Engineers is strictly prohibited. These data are gathered electronically and, as presented, have NOT undergone any form of quality control. These data are NOT guaranteed to be valid or correct.